createdAt,value
2019-04-30T00:00:18.688Z,22.93
2019-04-30T00:05:25.137Z,24.47
2019-04-30T00:10:36.022Z,24.32
2019-04-30T00:15:35.595Z,26.60
2019-04-30T00:20:38.748Z,26.50
2019-04-30T00:25:41.966Z,26.60
2019-04-30T00:30:47.778Z,26.10
2019-04-30T00:35:55.175Z,26.03
2019-04-30T00:40:57.826Z,27.37
2019-04-30T00:46:01.579Z,26.70
2019-04-30T00:51:07.580Z,27.43
2019-04-30T00:56:10.714Z,28.83
2019-04-30T01:01:21.319Z,28.80
2019-04-30T01:06:28.669Z,29.17
2019-04-30T01:11:30.442Z,31.00
2019-04-30T01:16:33.850Z,28.87
2019-04-30T01:21:40.173Z,33.47
2019-04-30T01:26:42.639Z,35.07
2019-04-30T01:31:46.055Z,32.73
2019-04-30T01:36:52.172Z,35.97
2019-04-30T01:41:54.280Z,34.97
2019-04-30T01:46:58.834Z,33.90
2019-04-30T01:52:02.285Z,34.00
2019-04-30T01:57:19.955Z,33.87
2019-04-30T02:02:25.010Z,32.43
2019-04-30T02:07:28.784Z,33.93
2019-04-30T02:12:32.091Z,31.30
2019-04-30T02:17:35.173Z,30.67
2019-04-30T02:22:38.996Z,32.27
2019-04-30T02:27:42.126Z,30.43
2019-04-30T02:32:45.442Z,30.13
2019-04-30T02:38:02.250Z,29.77
2019-04-30T02:43:06.306Z,33.10
2019-04-30T02:48:11.803Z,28.83
2019-04-30T02:53:50.944Z,30.17
2019-04-30T02:58:54.822Z,30.53
2019-04-30T03:03:59.829Z,32.10
2019-04-30T03:09:04.771Z,32.63
2019-04-30T03:14:10.324Z,31.87
2019-04-30T03:19:30.263Z,31.70
2019-04-30T03:24:34.020Z,31.97
2019-04-30T03:29:40.173Z,34.47
2019-04-30T03:34:43.013Z,34.83
2019-04-30T03:39:49.174Z,35.27
2019-04-30T03:44:51.928Z,32.83
2019-04-30T03:49:55.386Z,34.20
2019-04-30T03:54:59.650Z,36.93
2019-04-30T04:00:05.352Z,35.77
2019-04-30T04:05:10.883Z,39.77
2019-04-30T04:10:24.996Z,38.77
2019-04-30T04:15:29.898Z,41.87
2019-04-30T04:20:33.420Z,42.90
2019-04-30T04:25:39.690Z,43.60
2019-04-30T04:30:43.073Z,46.23
2019-04-30T04:35:49.556Z,50.03
2019-04-30T04:40:51.482Z,53.93
2019-04-30T04:45:54.566Z,50.27
2019-04-30T04:51:09.552Z,52.67
2019-04-30T04:56:11.979Z,51.73
2019-04-30T05:01:15.402Z,54.73
2019-04-30T05:06:21.812Z,52.13
2019-04-30T05:11:23.607Z,52.83
2019-04-30T05:16:28.851Z,52.93
2019-04-30T05:21:41.965Z,52.13
2019-04-30T05:26:38.670Z,52.73
2019-04-30T05:31:42.165Z,52.93
2019-04-30T05:36:45.850Z,52.40
2019-04-30T05:41:49.308Z,50.73
2019-04-30T05:46:52.993Z,46.93
2019-04-30T05:51:56.399Z,43.43
2019-04-30T05:57:00.150Z,43.33
2019-04-30T06:02:03.566Z,41.97
2019-04-30T06:07:08.586Z,43.23
2019-04-30T06:12:13.086Z,38.43
2019-04-30T06:17:21.108Z,42.10
2019-04-30T06:22:25.419Z,35.63
2019-04-30T06:27:29.197Z,38.63
2019-04-30T06:32:32.399Z,33.40
2019-04-30T06:37:36.246Z,36.07
2019-04-30T06:42:39.689Z,36.37
2019-04-30T06:47:42.935Z,38.63
2019-04-30T06:52:56.234Z,34.03
2019-04-30T06:57:50.875Z,37.10
2019-04-30T07:02:54.680Z,36.00
2019-04-30T07:08:09.100Z,33.73
2019-04-30T07:13:15.542Z,33.30
2019-04-30T07:18:19.016Z,34.10
2019-04-30T07:23:22.893Z,30.57
2019-04-30T07:28:41.226Z,29.87
2019-04-30T07:33:31.675Z,29.53
2019-04-30T07:38:35.785Z,28.67
2019-04-30T07:43:40.560Z,27.73
2019-04-30T07:48:44.281Z,27.80
2019-04-30T07:53:49.598Z,27.00
2019-04-30T07:58:53.156Z,26.03
2019-04-30T08:04:00.959Z,23.23
2019-04-30T08:09:10.133Z,22.80
2019-04-30T08:14:11.999Z,24.60
2019-04-30T08:19:15.415Z,23.90
2019-04-30T08:24:19.364Z,26.10
2019-04-30T08:29:22.863Z,24.47
2019-04-30T08:34:26.275Z,19.67
2019-04-30T08:39:31.845Z,21.80
2019-04-30T08:44:35.146Z,20.87
2019-04-30T08:49:40.486Z,20.50
2019-04-30T08:54:43.523Z,19.40
2019-04-30T08:59:46.603Z,21.10
2019-04-30T09:04:51.602Z,20.63
2019-04-30T09:09:55.290Z,19.60
2019-04-30T09:14:59.140Z,18.17
2019-04-30T09:20:02.335Z,18.10
2019-04-30T09:25:06.526Z,18.10
2019-04-30T09:30:10.432Z,14.90
2019-04-30T09:35:14.015Z,16.90
2019-04-30T09:40:20.509Z,15.27
2019-04-30T09:45:22.285Z,16.70
2019-04-30T09:50:26.000Z,15.20
2019-04-30T09:55:29.206Z,16.83
2019-04-30T10:00:33.039Z,15.40
2019-04-30T10:05:36.448Z,17.00
2019-04-30T10:10:44.189Z,16.23
2019-04-30T10:15:50.172Z,17.13
2019-04-30T10:20:53.599Z,16.27
2019-04-30T10:25:56.995Z,15.80
2019-04-30T10:31:00.491Z,13.00
2019-04-30T10:36:03.595Z,13.63
2019-04-30T10:41:08.790Z,13.63
2019-04-30T10:46:12.222Z,13.40
2019-04-30T10:51:15.651Z,14.03
2019-04-30T10:56:19.275Z,14.57
2019-04-30T11:01:22.810Z,12.63
2019-04-30T11:06:26.290Z,12.17
2019-04-30T11:11:30.605Z,13.13
2019-04-30T11:16:34.115Z,12.27
2019-04-30T11:21:37.332Z,11.20
2019-04-30T11:26:41.466Z,12.97
2019-04-30T11:31:47.338Z,11.20
2019-04-30T11:36:51.055Z,12.13
2019-04-30T11:41:54.176Z,10.80
2019-04-30T11:47:00.827Z,11.47
2019-04-30T11:52:04.179Z,18.10
2019-04-30T11:57:08.919Z,16.33
2019-04-30T12:02:23.417Z,13.33
2019-04-30T12:07:34.592Z,20.60
2019-04-30T12:12:38.781Z,19.83
2019-04-30T12:17:41.970Z,17.40
2019-04-30T12:22:45.048Z,18.07
2019-04-30T12:27:48.956Z,19.93
2019-04-30T12:32:52.783Z,18.17
2019-04-30T12:37:56.514Z,19.07
2019-04-30T12:42:59.950Z,16.90
2019-04-30T12:48:05.390Z,18.23
2019-04-30T12:53:19.903Z,18.90
2019-04-30T12:58:23.286Z,17.77
2019-04-30T13:03:28.369Z,15.85
2019-04-30T13:08:32.537Z,16.90
2019-04-30T13:13:36.330Z,17.37
2019-04-30T13:18:40.130Z,15.17
2019-04-30T13:23:43.209Z,9.03
2019-04-30T13:28:54.296Z,9.40
2019-04-30T13:34:15.893Z,7.90
2019-04-30T13:39:23.598Z,9.67
2019-04-30T13:44:29.430Z,8.13
2019-04-30T13:49:32.611Z,8.63
2019-04-30T13:54:35.739Z,6.50
2019-04-30T13:59:39.395Z,7.27
2019-04-30T14:04:47.219Z,8.90
2019-04-30T14:09:52.435Z,7.77
2019-04-30T14:14:56.119Z,7.87
2019-04-30T14:19:59.823Z,8.30
2019-04-30T14:25:03.769Z,9.93
2019-04-30T14:30:09.286Z,9.53
2019-04-30T14:35:12.751Z,9.33
2019-04-30T14:40:17.126Z,8.77
2019-04-30T14:45:23.652Z,10.07
2019-04-30T14:50:29.135Z,11.43
2019-04-30T14:55:43.207Z,10.60
2019-04-30T15:00:51.167Z,10.10
2019-04-30T15:05:54.323Z,8.80
2019-04-30T15:10:57.981Z,9.60
2019-04-30T15:16:01.294Z,10.50
2019-04-30T15:21:04.443Z,11.93
2019-04-30T15:26:08.662Z,10.60
2019-04-30T15:31:12.586Z,9.50
2019-04-30T15:36:15.671Z,9.97
2019-04-30T15:41:19.352Z,12.07
2019-04-30T15:46:23.492Z,12.50
2019-04-30T15:51:26.569Z,9.63
2019-04-30T15:56:37.075Z,9.20
2019-04-30T16:01:37.274Z,10.47
2019-04-30T16:06:40.471Z,10.33
2019-04-30T16:12:01.807Z,8.83
2019-04-30T16:17:06.853Z,11.37
2019-04-30T16:22:10.256Z,9.90
2019-04-30T16:27:13.331Z,11.77
2019-04-30T16:32:17.283Z,8.90
2019-04-30T16:37:20.434Z,11.13
2019-04-30T16:42:23.942Z,8.90
2019-04-30T16:47:29.603Z,11.27
2019-04-30T16:52:32.697Z,9.80
2019-04-30T16:57:35.772Z,10.00
2019-04-30T17:02:41.154Z,12.50
2019-04-30T17:07:50.517Z,10.28
2019-04-30T17:13:01.005Z,10.37
2019-04-30T17:18:04.474Z,10.67
2019-04-30T17:23:09.404Z,8.97
2019-04-30T17:28:12.687Z,11.97
2019-04-30T17:33:15.774Z,10.30
2019-04-30T17:38:19.101Z,8.30
2019-04-30T17:43:24.611Z,8.43
2019-04-30T17:48:29.137Z,19.15
2019-04-30T17:53:34.455Z,19.53
2019-04-30T17:58:37.780Z,22.57
2019-04-30T18:03:41.260Z,22.33
2019-04-30T18:08:44.667Z,25.93
2019-04-30T18:13:48.469Z,22.73
2019-04-30T18:19:01.064Z,23.90
2019-04-30T18:24:05.850Z,25.97
2019-04-30T18:29:08.936Z,24.50
2019-04-30T18:34:12.420Z,24.70
2019-04-30T18:39:18.816Z,26.33
2019-04-30T18:44:21.961Z,25.40
2019-04-30T18:49:25.035Z,27.50
2019-04-30T18:54:29.062Z,24.47
2019-04-30T18:59:32.783Z,24.10
2019-04-30T19:04:38.353Z,31.80
2019-04-30T19:09:42.415Z,26.47
2019-04-30T19:14:55.948Z,34.60
2019-04-30T19:20:13.108Z,28.63
2019-04-30T19:25:16.198Z,32.07
2019-04-30T19:30:19.445Z,29.33
2019-04-30T19:35:22.873Z,28.27
2019-04-30T19:40:26.307Z,27.50
2019-04-30T19:45:30.071Z,29.30
2019-04-30T19:50:33.502Z,30.63
2019-04-30T19:55:36.661Z,29.30
2019-04-30T20:00:40.062Z,29.70
2019-04-30T20:05:43.478Z,30.13
2019-04-30T20:10:47.180Z,31.73
2019-04-30T20:15:50.639Z,34.67
2019-04-30T20:20:55.754Z,30.97
2019-04-30T20:25:59.182Z,31.20
2019-04-30T20:31:02.366Z,32.17
2019-04-30T20:36:05.454Z,33.07
2019-04-30T20:41:10.424Z,31.17
2019-04-30T20:46:13.854Z,33.30
2019-04-30T20:51:17.198Z,35.43
2019-04-30T20:56:20.623Z,33.23
2019-04-30T21:01:24.034Z,35.70
2019-04-30T21:06:27.130Z,36.63
2019-04-30T21:11:30.534Z,37.97
2019-04-30T21:16:33.862Z,36.57
2019-04-30T21:21:38.698Z,37.93
2019-04-30T21:26:42.599Z,38.70
2019-04-30T21:31:53.647Z,40.10
2019-04-30T21:36:56.807Z,40.03
2019-04-30T21:42:00.471Z,39.33
2019-04-30T21:47:03.766Z,37.60
2019-04-30T21:52:07.120Z,39.53
2019-04-30T21:57:10.431Z,43.17
2019-04-30T22:02:14.146Z,42.63
2019-04-30T22:07:19.363Z,41.77
2019-04-30T22:12:22.430Z,41.27
2019-04-30T22:17:25.755Z,42.47
2019-04-30T22:22:29.219Z,42.13
2019-04-30T22:27:32.403Z,44.50
2019-04-30T22:32:35.810Z,40.40
2019-04-30T22:38:22.076Z,44.37
2019-04-30T22:43:26.847Z,43.33
2019-04-30T22:48:31.488Z,41.40
2019-04-30T22:53:35.699Z,43.50
2019-04-30T22:58:39.867Z,41.73
2019-04-30T23:03:44.704Z,39.73
2019-04-30T23:08:48.900Z,43.37
2019-04-30T23:13:53.019Z,43.77
2019-04-30T23:18:57.225Z,38.67
2019-04-30T23:24:01.520Z,41.40
2019-04-30T23:29:07.450Z,38.90
2019-04-30T23:34:17.700Z,42.43
2019-04-30T23:39:17.731Z,43.93
2019-04-30T23:44:21.983Z,40.73
2019-04-30T23:49:26.182Z,42.73
2019-04-30T23:54:30.767Z,44.27
2019-04-30T23:59:34.995Z,44.27
